sensor_id;sensor_type;location;lat;lon;timestamp;temperature;humidity
43679;DHT22;29279;50.858;4.392;2022-10-30T00:00:08;20.30;99.60
43679;DHT22;29279;50.858;4.392;2022-10-30T00:02:33;20.30;99.70
43679;DHT22;29279;50.858;4.392;2022-10-30T00:04:59;20.40;99.60
43679;DHT22;29279;50.858;4.392;2022-10-30T00:07:25;20.40;99.70
43679;DHT22;29279;50.858;4.392;2022-10-30T00:09:50;20.40;99.70
43679;DHT22;29279;50.858;4.392;2022-10-30T00:12:16;20.30;99.60
43679;DHT22;29279;50.858;4.392;2022-10-30T00:14:41;20.30;99.80
43679;DHT22;29279;50.858;4.392;2022-10-30T00:17:07;20.30;99.90
43679;DHT22;29279;50.858;4.392;2022-10-30T00:19:33;20.20;99.90
43679;DHT22;29279;50.858;4.392;2022-10-30T00:21:58;20.20;99.90
43679;DHT22;29279;50.858;4.392;2022-10-30T00:24:27;20.20;99.90
43679;DHT22;29279;50.858;4.392;2022-10-30T00:26:53;20.40;99.90
43679;DHT22;29279;50.858;4.392;2022-10-30T00:29:18;20.40;99.80
43679;DHT22;29279;50.858;4.392;2022-10-30T00:31:44;20.30;99.80
43679;DHT22;29279;50.858;4.392;2022-10-30T00:34:09;20.30;99.90
43679;DHT22;29279;50.858;4.392;2022-10-30T00:36:35;20.30;99.90
43679;DHT22;29279;50.858;4.392;2022-10-30T00:39:01;20.30;99.90
43679;DHT22;29279;50.858;4.392;2022-10-30T00:41:26;20.30;99.90
43679;DHT22;29279;50.858;4.392;2022-10-30T00:43:52;20.20;99.90
43679;DHT22;29279;50.858;4.392;2022-10-30T00:51:36;20.10;99.90
43679;DHT22;29279;50.858;4.392;2022-10-30T00:54:05;20.10;99.90
43679;DHT22;29279;50.858;4.392;2022-10-30T00:56:31;20.00;99.90
43679;DHT22;29279;50.858;4.392;2022-10-30T00:59:03;19.90;99.90
43679;DHT22;29279;50.858;4.392;2022-10-30T01:01:35;19.70;99.90
43679;DHT22;29279;50.858;4.392;2022-10-30T01:04:02;19.70;99.90
43679;DHT22;29279;50.858;4.392;2022-10-30T01:06:32;19.60;99.90
43679;DHT22;29279;50.858;4.392;2022-10-30T01:08:58;19.60;99.90
43679;DHT22;29279;50.858;4.392;2022-10-30T01:11:24;19.50;99.90
43679;DHT22;29279;50.858;4.392;2022-10-30T01:13:51;19.50;99.90
43679;DHT22;29279;50.858;4.392;2022-10-30T01:27:38;19.20;99.90
43679;DHT22;29279;50.858;4.392;2022-10-30T01:30:25;19.20;99.90
43679;DHT22;29279;50.858;4.392;2022-10-30T01:35:53;19.30;99.90
43679;DHT22;29279;50.858;4.392;2022-10-30T01:38:30;19.40;99.90
43679;DHT22;29279;50.858;4.392;2022-10-30T01:40:58;19.40;99.90
43679;DHT22;29279;50.858;4.392;2022-10-30T01:43:23;19.30;99.90
43679;DHT22;29279;50.858;4.392;2022-10-30T01:51:49;19.60;99.90
43679;DHT22;29279;50.858;4.392;2022-10-30T01:54:20;19.50;99.90
43679;DHT22;29279;50.858;4.392;2022-10-30T02:02:07;19.30;99.90
43679;DHT22;29279;50.858;4.392;2022-10-30T02:04:32;19.40;99.90
43679;DHT22;29279;50.858;4.392;2022-10-30T02:06:58;19.40;99.90
43679;DHT22;29279;50.858;4.392;2022-10-30T02:09:25;19.30;99.90
43679;DHT22;29279;50.858;4.392;2022-10-30T02:11:52;19.30;99.90
43679;DHT22;29279;50.858;4.392;2022-10-30T02:14:26;19.20;99.90
43679;DHT22;29279;50.858;4.392;2022-10-30T02:16:53;19.20;99.90
43679;DHT22;29279;50.858;4.392;2022-10-30T02:19:21;19.30;99.90
43679;DHT22;29279;50.858;4.392;2022-10-30T02:21:47;19.30;99.90
43679;DHT22;29279;50.858;4.392;2022-10-30T02:24:13;19.30;99.90
43679;DHT22;29279;50.858;4.392;2022-10-30T02:26:38;19.20;99.90
43679;DHT22;29279;50.858;4.392;2022-10-30T02:29:04;19.20;99.90
43679;DHT22;29279;50.858;4.392;2022-10-30T02:31:29;19.30;99.90
43679;DHT22;29279;50.858;4.392;2022-10-30T02:33:55;19.40;99.90
43679;DHT22;29279;50.858;4.392;2022-10-30T02:36:21;19.40;99.90
43679;DHT22;29279;50.858;4.392;2022-10-30T02:38:46;19.50;99.90
43679;DHT22;29279;50.858;4.392;2022-10-30T02:41:12;19.40;99.90
43679;DHT22;29279;50.858;4.392;2022-10-30T02:43:37;19.40;99.90
43679;DHT22;29279;50.858;4.392;2022-10-30T02:46:03;19.30;99.90
43679;DHT22;29279;50.858;4.392;2022-10-30T02:48:30;19.30;99.90
43679;DHT22;29279;50.858;4.392;2022-10-30T02:51:02;19.30;99.90
43679;DHT22;29279;50.858;4.392;2022-10-30T02:53:29;19.40;99.90
43679;DHT22;29279;50.858;4.392;2022-10-30T02:55:54;19.40;99.90
43679;DHT22;29279;50.858;4.392;2022-10-30T02:58:20;19.40;99.90
43679;DHT22;29279;50.858;4.392;2022-10-30T03:00:46;19.50;99.90
43679;DHT22;29279;50.858;4.392;2022-10-30T03:03:11;19.40;99.90
43679;DHT22;29279;50.858;4.392;2022-10-30T03:05:37;19.40;99.90
43679;DHT22;29279;50.858;4.392;2022-10-30T03:08:03;19.50;99.90
43679;DHT22;29279;50.858;4.392;2022-10-30T03:10:28;19.50;99.90
43679;DHT22;29279;50.858;4.392;2022-10-30T03:12:54;19.50;99.90
43679;DHT22;29279;50.858;4.392;2022-10-30T03:15:20;19.50;99.90
43679;DHT22;29279;50.858;4.392;2022-10-30T03:17:46;19.50;99.90
43679;DHT22;29279;50.858;4.392;2022-10-30T03:20:12;19.50;99.90
43679;DHT22;29279;50.858;4.392;2022-10-30T03:22:37;19.40;99.90
43679;DHT22;29279;50.858;4.392;2022-10-30T03:25:04;19.40;99.90
43679;DHT22;29279;50.858;4.392;2022-10-30T03:27:30;19.40;99.90
43679;DHT22;29279;50.858;4.392;2022-10-30T03:29:55;19.40;99.90
43679;DHT22;29279;50.858;4.392;2022-10-30T03:32:21;19.40;99.90
43679;DHT22;29279;50.858;4.392;2022-10-30T03:34:47;19.50;99.90
43679;DHT22;29279;50.858;4.392;2022-10-30T03:37:12;19.40;99.90
43679;DHT22;29279;50.858;4.392;2022-10-30T03:39:38;19.40;99.90
43679;DHT22;29279;50.858;4.392;2022-10-30T03:42:04;19.30;99.90
43679;DHT22;29279;50.858;4.392;2022-10-30T03:44:29;19.30;99.90
43679;DHT22;29279;50.858;4.392;2022-10-30T03:46:55;19.30;99.90
43679;DHT22;29279;50.858;4.392;2022-10-30T03:49:20;19.20;99.90
43679;DHT22;29279;50.858;4.392;2022-10-30T03:51:46;19.20;99.90
43679;DHT22;29279;50.858;4.392;2022-10-30T03:54:12;19.20;99.90
43679;DHT22;29279;50.858;4.392;2022-10-30T03:56:37;19.10;99.90
43679;DHT22;29279;50.858;4.392;2022-10-30T03:59:03;19.10;99.90
43679;DHT22;29279;50.858;4.392;2022-10-30T04:01:28;19.20;99.90
43679;DHT22;29279;50.858;4.392;2022-10-30T04:03:54;19.30;99.90
43679;DHT22;29279;50.858;4.392;2022-10-30T04:06:20;19.20;99.90
43679;DHT22;29279;50.858;4.392;2022-10-30T04:08:45;19.00;99.90
43679;DHT22;29279;50.858;4.392;2022-10-30T04:11:11;18.70;99.90
43679;DHT22;29279;50.858;4.392;2022-10-30T04:13:37;18.50;99.90
43679;DHT22;29279;50.858;4.392;2022-10-30T04:16:03;18.40;99.90
43679;DHT22;29279;50.858;4.392;2022-10-30T04:18:29;18.30;99.90
43679;DHT22;29279;50.858;4.392;2022-10-30T04:20:54;18.20;99.90
43679;DHT22;29279;50.858;4.392;2022-10-30T04:23:21;18.10;99.90
43679;DHT22;29279;50.858;4.392;2022-10-30T04:25:47;18.20;99.90
43679;DHT22;29279;50.858;4.392;2022-10-30T04:28:13;18.10;99.90
43679;DHT22;29279;50.858;4.392;2022-10-30T04:30:38;18.00;99.90
43679;DHT22;29279;50.858;4.392;2022-10-30T04:33:06;18.00;99.90
43679;DHT22;29279;50.858;4.392;2022-10-30T04:35:34;17.90;99.90
43679;DHT22;29279;50.858;4.392;2022-10-30T04:38:08;17.80;99.90
43679;DHT22;29279;50.858;4.392;2022-10-30T04:40:37;17.70;99.90
43679;DHT22;29279;50.858;4.392;2022-10-30T04:43:04;17.60;99.90
43679;DHT22;29279;50.858;4.392;2022-10-30T04:45:30;17.60;99.90
43679;DHT22;29279;50.858;4.392;2022-10-30T04:48:03;17.60;99.90
43679;DHT22;29279;50.858;4.392;2022-10-30T04:50:30;17.50;99.90
43679;DHT22;29279;50.858;4.392;2022-10-30T04:53:01;17.50;99.90
43679;DHT22;29279;50.858;4.392;2022-10-30T04:55:27;17.50;99.90
43679;DHT22;29279;50.858;4.392;2022-10-30T04:57:57;17.30;99.90
43679;DHT22;29279;50.858;4.392;2022-10-30T05:00:24;17.30;99.90
43679;DHT22;29279;50.858;4.392;2022-10-30T05:02:50;17.30;99.90
43679;DHT22;29279;50.858;4.392;2022-10-30T05:05:16;17.30;99.90
43679;DHT22;29279;50.858;4.392;2022-10-30T05:07:42;17.30;99.90
43679;DHT22;29279;50.858;4.392;2022-10-30T05:10:11;17.40;99.90
43679;DHT22;29279;50.858;4.392;2022-10-30T05:12:41;17.40;99.90
43679;DHT22;29279;50.858;4.392;2022-10-30T05:15:08;17.40;99.90
43679;DHT22;29279;50.858;4.392;2022-10-30T05:17:34;17.40;99.90
43679;DHT22;29279;50.858;4.392;2022-10-30T05:19:59;17.30;99.90
43679;DHT22;29279;50.858;4.392;2022-10-30T05:22:25;17.40;99.90
43679;DHT22;29279;50.858;4.392;2022-10-30T05:24:50;17.40;99.90
43679;DHT22;29279;50.858;4.392;2022-10-30T05:27:16;17.30;99.90
43679;DHT22;29279;50.858;4.392;2022-10-30T05:29:42;17.30;99.90
43679;DHT22;29279;50.858;4.392;2022-10-30T05:32:07;17.20;99.90
43679;DHT22;29279;50.858;4.392;2022-10-30T05:34:33;17.20;99.90
43679;DHT22;29279;50.858;4.392;2022-10-30T05:36:59;17.30;99.90
43679;DHT22;29279;50.858;4.392;2022-10-30T05:39:26;17.20;99.90
43679;DHT22;29279;50.858;4.392;2022-10-30T05:41:51;17.30;99.90
43679;DHT22;29279;50.858;4.392;2022-10-30T05:44:17;17.30;99.90
43679;DHT22;29279;50.858;4.392;2022-10-30T05:46:43;17.40;99.90
43679;DHT22;29279;50.858;4.392;2022-10-30T05:49:08;17.50;99.90
43679;DHT22;29279;50.858;4.392;2022-10-30T05:51:34;17.60;99.90
43679;DHT22;29279;50.858;4.392;2022-10-30T05:54:00;17.70;99.90
43679;DHT22;29279;50.858;4.392;2022-10-30T05:56:25;17.90;99.90
43679;DHT22;29279;50.858;4.392;2022-10-30T05:58:51;18.00;99.90
43679;DHT22;29279;50.858;4.392;2022-10-30T06:01:17;17.70;99.90
43679;DHT22;29279;50.858;4.392;2022-10-30T06:03:43;17.50;99.90
43679;DHT22;29279;50.858;4.392;2022-10-30T06:06:09;17.40;99.90
43679;DHT22;29279;50.858;4.392;2022-10-30T06:08:35;17.30;99.90
43679;DHT22;29279;50.858;4.392;2022-10-30T06:11:01;17.20;99.90
43679;DHT22;29279;50.858;4.392;2022-10-30T06:13:26;17.10;99.90
43679;DHT22;29279;50.858;4.392;2022-10-30T06:15:55;17.10;99.90
43679;DHT22;29279;50.858;4.392;2022-10-30T06:18:21;17.10;99.90
43679;DHT22;29279;50.858;4.392;2022-10-30T06:20:47;17.10;99.90
43679;DHT22;29279;50.858;4.392;2022-10-30T06:23:21;17.10;99.90
43679;DHT22;29279;50.858;4.392;2022-10-30T06:25:46;17.10;99.90
43679;DHT22;29279;50.858;4.392;2022-10-30T06:28:12;17.00;99.90
43679;DHT22;29279;50.858;4.392;2022-10-30T06:30:38;17.10;99.90
43679;DHT22;29279;50.858;4.392;2022-10-30T06:33:04;17.10;99.90
43679;DHT22;29279;50.858;4.392;2022-10-30T06:35:31;17.20;99.90
43679;DHT22;29279;50.858;4.392;2022-10-30T06:37:57;17.30;99.90
43679;DHT22;29279;50.858;4.392;2022-10-30T06:40:25;17.30;99.90
43679;DHT22;29279;50.858;4.392;2022-10-30T06:42:51;17.40;99.90
43679;DHT22;29279;50.858;4.392;2022-10-30T06:45:19;17.50;99.90
43679;DHT22;29279;50.858;4.392;2022-10-30T06:47:46;17.50;99.90
43679;DHT22;29279;50.858;4.392;2022-10-30T06:50:15;17.50;99.90
43679;DHT22;29279;50.858;4.392;2022-10-30T06:52:44;17.50;99.90
43679;DHT22;29279;50.858;4.392;2022-10-30T06:55:10;17.50;99.90
43679;DHT22;29279;50.858;4.392;2022-10-30T06:57:37;17.50;99.90
43679;DHT22;29279;50.858;4.392;2022-10-30T07:00:04;17.60;99.90
43679;DHT22;29279;50.858;4.392;2022-10-30T07:02:30;17.60;99.90
43679;DHT22;29279;50.858;4.392;2022-10-30T07:04:55;17.50;99.90
43679;DHT22;29279;50.858;4.392;2022-10-30T07:07:21;17.50;99.90
43679;DHT22;29279;50.858;4.392;2022-10-30T07:09:47;17.50;99.90
43679;DHT22;29279;50.858;4.392;2022-10-30T07:12:13;17.70;99.90
43679;DHT22;29279;50.858;4.392;2022-10-30T07:14:39;17.80;99.90
43679;DHT22;29279;50.858;4.392;2022-10-30T07:17:04;17.90;99.90
43679;DHT22;29279;50.858;4.392;2022-10-30T07:19:30;17.80;99.90
43679;DHT22;29279;50.858;4.392;2022-10-30T07:21:55;17.70;99.90
43679;DHT22;29279;50.858;4.392;2022-10-30T07:24:21;17.70;99.90
43679;DHT22;29279;50.858;4.392;2022-10-30T07:26:47;17.80;99.90
43679;DHT22;29279;50.858;4.392;2022-10-30T07:29:12;18.00;99.90
43679;DHT22;29279;50.858;4.392;2022-10-30T07:31:38;18.20;99.90
43679;DHT22;29279;50.858;4.392;2022-10-30T07:34:04;18.30;99.90
43679;DHT22;29279;50.858;4.392;2022-10-30T07:36:29;18.40;99.90
43679;DHT22;29279;50.858;4.392;2022-10-30T07:38:55;18.60;99.90
43679;DHT22;29279;50.858;4.392;2022-10-30T07:41:21;18.90;99.90
43679;DHT22;29279;50.858;4.392;2022-10-30T07:43:46;19.10;99.90
43679;DHT22;29279;50.858;4.392;2022-10-30T07:46:12;19.30;99.90
43679;DHT22;29279;50.858;4.392;2022-10-30T07:48:38;19.60;99.90
43679;DHT22;29279;50.858;4.392;2022-10-30T07:51:04;19.80;99.90
43679;DHT22;29279;50.858;4.392;2022-10-30T07:53:30;20.00;99.90
43679;DHT22;29279;50.858;4.392;2022-10-30T07:55:56;20.10;99.90
43679;DHT22;29279;50.858;4.392;2022-10-30T07:58:22;20.20;99.90
43679;DHT22;29279;50.858;4.392;2022-10-30T08:00:48;20.30;99.90
43679;DHT22;29279;50.858;4.392;2022-10-30T08:03:14;20.50;99.90
43679;DHT22;29279;50.858;4.392;2022-10-30T08:05:40;20.80;99.90
43679;DHT22;29279;50.858;4.392;2022-10-30T08:08:07;21.10;99.90
43679;DHT22;29279;50.858;4.392;2022-10-30T08:10:33;21.40;99.90
43679;DHT22;29279;50.858;4.392;2022-10-30T08:12:59;21.50;99.90
43679;DHT22;29279;50.858;4.392;2022-10-30T08:15:25;22.00;99.90
43679;DHT22;29279;50.858;4.392;2022-10-30T08:17:51;22.40;99.90
43679;DHT22;29279;50.858;4.392;2022-10-30T08:20:19;22.80;99.60
43679;DHT22;29279;50.858;4.392;2022-10-30T08:22:51;22.70;99.20
43679;DHT22;29279;50.858;4.392;2022-10-30T08:25:19;22.40;99.20
43679;DHT22;29279;50.858;4.392;2022-10-30T08:30:23;21.90;99.50
43679;DHT22;29279;50.858;4.392;2022-10-30T08:32:49;21.80;99.60
43679;DHT22;29279;50.858;4.392;2022-10-30T08:35:15;21.60;99.70
43679;DHT22;29279;50.858;4.392;2022-10-30T08:37:41;21.60;99.80
43679;DHT22;29279;50.858;4.392;2022-10-30T08:40:08;21.40;99.90
43679;DHT22;29279;50.858;4.392;2022-10-30T08:42:34;21.40;99.90
43679;DHT22;29279;50.858;4.392;2022-10-30T08:45:00;21.20;99.90
43679;DHT22;29279;50.858;4.392;2022-10-30T08:47:25;21.10;99.90
43679;DHT22;29279;50.858;4.392;2022-10-30T08:49:51;21.40;99.90
43679;DHT22;29279;50.858;4.392;2022-10-30T08:52:17;22.10;99.30
43679;DHT22;29279;50.858;4.392;2022-10-30T08:54:42;22.70;98.50
43679;DHT22;29279;50.858;4.392;2022-10-30T08:57:08;22.90;98.50
43679;DHT22;29279;50.858;4.392;2022-10-30T08:59:34;23.40;97.50
43679;DHT22;29279;50.858;4.392;2022-10-30T09:01:59;23.90;96.70
43679;DHT22;29279;50.858;4.392;2022-10-30T09:04:25;23.90;96.60
43679;DHT22;29279;50.858;4.392;2022-10-30T09:06:50;24.20;96.30
43679;DHT22;29279;50.858;4.392;2022-10-30T09:09:16;24.60;95.80
43679;DHT22;29279;50.858;4.392;2022-10-30T09:11:42;24.90;95.00
43679;DHT22;29279;50.858;4.392;2022-10-30T09:14:07;25.60;94.80
43679;DHT22;29279;50.858;4.392;2022-10-30T09:16:33;25.90;93.90
43679;DHT22;29279;50.858;4.392;2022-10-30T09:18:59;26.20;93.50
43679;DHT22;29279;50.858;4.392;2022-10-30T09:21:24;26.80;93.00
43679;DHT22;29279;50.858;4.392;2022-10-30T09:23:50;26.90;92.60
43679;DHT22;29279;50.858;4.392;2022-10-30T09:26:16;27.40;92.30
43679;DHT22;29279;50.858;4.392;2022-10-30T09:28:42;27.60;91.60
43679;DHT22;29279;50.858;4.392;2022-10-30T09:31:07;27.80;91.40
43679;DHT22;29279;50.858;4.392;2022-10-30T09:33:33;28.30;91.00
43679;DHT22;29279;50.858;4.392;2022-10-30T09:35:58;29.00;90.30
43679;DHT22;29279;50.858;4.392;2022-10-30T09:38:27;29.30;89.40
43679;DHT22;29279;50.858;4.392;2022-10-30T09:41:17;29.90;89.00
43679;DHT22;29279;50.858;4.392;2022-10-30T09:44:00;30.60;86.50
43679;DHT22;29279;50.858;4.392;2022-10-30T09:52:24;32.00;83.70
43679;DHT22;29279;50.858;4.392;2022-10-30T09:58:06;31.30;82.50
43679;DHT22;29279;50.858;4.392;2022-10-30T10:00:40;30.80;82.90
43679;DHT22;29279;50.858;4.392;2022-10-30T10:05:58;30.60;82.60
43679;DHT22;29279;50.858;4.392;2022-10-30T10:08:38;30.60;83.00
43679;DHT22;29279;50.858;4.392;2022-10-30T10:11:16;30.50;82.80
43679;DHT22;29279;50.858;4.392;2022-10-30T10:16:40;29.80;83.10
43679;DHT22;29279;50.858;4.392;2022-10-30T10:19:25;29.20;83.60
43679;DHT22;29279;50.858;4.392;2022-10-30T10:22:03;28.70;84.70
43679;DHT22;29279;50.858;4.392;2022-10-30T10:24:34;28.20;85.50
43679;DHT22;29279;50.858;4.392;2022-10-30T10:30:02;27.50;86.90
43679;DHT22;29279;50.858;4.392;2022-10-30T10:38:01;26.60;89.00
43679;DHT22;29279;50.858;4.392;2022-10-30T10:46:23;25.70;90.40
43679;DHT22;29279;50.858;4.392;2022-10-30T10:51:40;25.10;91.10
43679;DHT22;29279;50.858;4.392;2022-10-30T10:54:24;25.10;91.30
43679;DHT22;29279;50.858;4.392;2022-10-30T10:56:52;25.00;91.40
43679;DHT22;29279;50.858;4.392;2022-10-30T10:59:42;24.90;91.50
43679;DHT22;29279;50.858;4.392;2022-10-30T11:04:46;25.00;91.60
43679;DHT22;29279;50.858;4.392;2022-10-30T11:09:41;24.90;91.80
43679;DHT22;29279;50.858;4.392;2022-10-30T11:12:07;24.80;92.00
43679;DHT22;29279;50.858;4.392;2022-10-30T11:14:33;24.70;92.20
43679;DHT22;29279;50.858;4.392;2022-10-30T11:17:14;24.80;92.30
43679;DHT22;29279;50.858;4.392;2022-10-30T11:19:43;24.90;92.10
43679;DHT22;29279;50.858;4.392;2022-10-30T11:22:30;25.10;92.00
43679;DHT22;29279;50.858;4.392;2022-10-30T11:27:54;26.50;91.00
43679;DHT22;29279;50.858;4.392;2022-10-30T11:30:23;26.40;91.10
43679;DHT22;29279;50.858;4.392;2022-10-30T11:32:49;26.20;91.10
43679;DHT22;29279;50.858;4.392;2022-10-30T11:35:17;26.30;91.30
43679;DHT22;29279;50.858;4.392;2022-10-30T11:37:44;26.60;90.80
43679;DHT22;29279;50.858;4.392;2022-10-30T11:45:27;26.20;90.90
43679;DHT22;29279;50.858;4.392;2022-10-30T11:47:56;25.80;91.20
43679;DHT22;29279;50.858;4.392;2022-10-30T11:50:24;25.70;91.40
43679;DHT22;29279;50.858;4.392;2022-10-30T11:53:01;25.40;91.50
43679;DHT22;29279;50.858;4.392;2022-10-30T11:55:49;25.20;91.80
43679;DHT22;29279;50.858;4.392;2022-10-30T12:01:02;24.80;91.90
43679;DHT22;29279;50.858;4.392;2022-10-30T12:03:39;24.50;92.20
43679;DHT22;29279;50.858;4.392;2022-10-30T12:09:21;23.80;92.90
43679;DHT22;29279;50.858;4.392;2022-10-30T12:11:47;23.90;93.00
43679;DHT22;29279;50.858;4.392;2022-10-30T12:14:20;24.00;92.90
43679;DHT22;29279;50.858;4.392;2022-10-30T12:16:48;24.20;92.90
43679;DHT22;29279;50.858;4.392;2022-10-30T12:19:15;24.20;92.60
43679;DHT22;29279;50.858;4.392;2022-10-30T12:21:51;24.10;92.80
43679;DHT22;29279;50.858;4.392;2022-10-30T12:24:29;24.00;93.20
43679;DHT22;29279;50.858;4.392;2022-10-30T12:26:57;24.10;93.00
43679;DHT22;29279;50.858;4.392;2022-10-30T12:29:57;24.20;93.00
43679;DHT22;29279;50.858;4.392;2022-10-30T12:32:22;24.80;92.40
43679;DHT22;29279;50.858;4.392;2022-10-30T12:34:56;25.40;91.80
43679;DHT22;29279;50.858;4.392;2022-10-30T12:37:35;25.60;91.70
43679;DHT22;29279;50.858;4.392;2022-10-30T12:40:29;25.80;91.40
43679;DHT22;29279;50.858;4.392;2022-10-30T12:43:21;26.00;91.00
43679;DHT22;29279;50.858;4.392;2022-10-30T12:45:50;26.20;90.90
43679;DHT22;29279;50.858;4.392;2022-10-30T12:48:32;26.90;90.30
43679;DHT22;29279;50.858;4.392;2022-10-30T12:51:25;27.70;90.00
43679;DHT22;29279;50.858;4.392;2022-10-30T12:56:44;28.70;87.40
43679;DHT22;29279;50.858;4.392;2022-10-30T12:59:39;29.10;86.10
43679;DHT22;29279;50.858;4.392;2022-10-30T13:05:23;29.50;85.00
43679;DHT22;29279;50.858;4.392;2022-10-30T13:10:39;29.30;85.40
43679;DHT22;29279;50.858;4.392;2022-10-30T13:13:14;28.80;85.60
43679;DHT22;29279;50.858;4.392;2022-10-30T13:15:47;28.50;86.30
43679;DHT22;29279;50.858;4.392;2022-10-30T13:18:22;28.90;85.70
43679;DHT22;29279;50.858;4.392;2022-10-30T13:23:47;28.20;86.50
43679;DHT22;29279;50.858;4.392;2022-10-30T13:32:03;27.90;87.70
43679;DHT22;29279;50.858;4.392;2022-10-30T13:53:01;29.20;84.80
43679;DHT22;29279;50.858;4.392;2022-10-30T13:55:31;29.20;84.60
43679;DHT22;29279;50.858;4.392;2022-10-30T14:03:41;28.50;85.90
43679;DHT22;29279;50.858;4.392;2022-10-30T14:11:47;27.10;87.70
43679;DHT22;29279;50.858;4.392;2022-10-30T14:14:30;27.00;88.20
43679;DHT22;29279;50.858;4.392;2022-10-30T14:17:12;26.50;88.90
43679;DHT22;29279;50.858;4.392;2022-10-30T14:22:29;26.10;90.30
43679;DHT22;29279;50.858;4.392;2022-10-30T14:24:55;26.20;90.30
43679;DHT22;29279;50.858;4.392;2022-10-30T14:27:27;26.50;90.10
43679;DHT22;29279;50.858;4.392;2022-10-30T14:29:53;26.30;90.30
43679;DHT22;29279;50.858;4.392;2022-10-30T14:39:50;24.00;93.30
43679;DHT22;29279;50.858;4.392;2022-10-30T14:45:36;23.10;94.60
43679;DHT22;29279;50.858;4.392;2022-10-30T14:48:24;22.80;95.30
43679;DHT22;29279;50.858;4.392;2022-10-30T14:53:38;22.30;96.10
43679;DHT22;29279;50.858;4.392;2022-10-30T14:58:42;21.70;97.20
43679;DHT22;29279;50.858;4.392;2022-10-30T15:06:36;21.60;97.70
43679;DHT22;29279;50.858;4.392;2022-10-30T15:15:05;20.80;99.40
43679;DHT22;29279;50.858;4.392;2022-10-30T15:17:37;20.80;99.70
43679;DHT22;29279;50.858;4.392;2022-10-30T15:20:07;20.70;99.90
43679;DHT22;29279;50.858;4.392;2022-10-30T15:22:33;20.70;99.90
43679;DHT22;29279;50.858;4.392;2022-10-30T15:25:01;20.70;99.90
43679;DHT22;29279;50.858;4.392;2022-10-30T15:27:27;20.80;99.90
43679;DHT22;29279;50.858;4.392;2022-10-30T15:29:55;20.70;99.90
43679;DHT22;29279;50.858;4.392;2022-10-30T15:32:23;20.60;99.90
43679;DHT22;29279;50.858;4.392;2022-10-30T15:37:25;20.50;99.90
43679;DHT22;29279;50.858;4.392;2022-10-30T15:42:39;20.50;99.90
43679;DHT22;29279;50.858;4.392;2022-10-30T15:45:08;20.50;99.90
43679;DHT22;29279;50.858;4.392;2022-10-30T15:47:45;20.60;99.90
43679;DHT22;29279;50.858;4.392;2022-10-30T15:50:11;20.70;99.90
43679;DHT22;29279;50.858;4.392;2022-10-30T15:52:40;20.60;99.90
43679;DHT22;29279;50.858;4.392;2022-10-30T15:55:08;20.60;99.90
43679;DHT22;29279;50.858;4.392;2022-10-30T15:57:42;20.60;99.90
43679;DHT22;29279;50.858;4.392;2022-10-30T16:00:33;20.60;99.90
43679;DHT22;29279;50.858;4.392;2022-10-30T16:05:29;20.60;99.90
43679;DHT22;29279;50.858;4.392;2022-10-30T16:08:00;20.60;99.90
43679;DHT22;29279;50.858;4.392;2022-10-30T16:10:31;20.60;99.90
43679;DHT22;29279;50.858;4.392;2022-10-30T16:12:57;20.40;99.90
43679;DHT22;29279;50.858;4.392;2022-10-30T16:15:26;20.30;99.90
43679;DHT22;29279;50.858;4.392;2022-10-30T16:20:39;19.90;99.90
43679;DHT22;29279;50.858;4.392;2022-10-30T16:23:06;19.80;99.90
43679;DHT22;29279;50.858;4.392;2022-10-30T16:25:32;19.90;99.90
43679;DHT22;29279;50.858;4.392;2022-10-30T16:28:03;20.10;99.90
43679;DHT22;29279;50.858;4.392;2022-10-30T16:30:30;20.20;99.90
43679;DHT22;29279;50.858;4.392;2022-10-30T16:32:57;20.30;99.90
43679;DHT22;29279;50.858;4.392;2022-10-30T16:35:23;20.30;99.90
43679;DHT22;29279;50.858;4.392;2022-10-30T16:37:50;20.30;99.90
43679;DHT22;29279;50.858;4.392;2022-10-30T16:40:23;20.30;99.90
43679;DHT22;29279;50.858;4.392;2022-10-30T16:42:57;20.20;99.90
43679;DHT22;29279;50.858;4.392;2022-10-30T16:48:07;20.00;99.90
43679;DHT22;29279;50.858;4.392;2022-10-30T16:50:36;20.10;99.90
43679;DHT22;29279;50.858;4.392;2022-10-30T16:55:50;19.90;99.90
43679;DHT22;29279;50.858;4.392;2022-10-30T16:58:16;19.90;99.90
43679;DHT22;29279;50.858;4.392;2022-10-30T17:00:49;19.90;99.90
43679;DHT22;29279;50.858;4.392;2022-10-30T17:03:19;19.90;99.90
43679;DHT22;29279;50.858;4.392;2022-10-30T17:06:04;19.80;99.90
43679;DHT22;29279;50.858;4.392;2022-10-30T17:08:39;19.80;99.90
43679;DHT22;29279;50.858;4.392;2022-10-30T17:11:08;19.80;99.90
43679;DHT22;29279;50.858;4.392;2022-10-30T17:13:55;19.90;99.90
43679;DHT22;29279;50.858;4.392;2022-10-30T17:16:27;19.90;99.90
43679;DHT22;29279;50.858;4.392;2022-10-30T17:21:43;19.80;99.90
43679;DHT22;29279;50.858;4.392;2022-10-30T17:24:19;19.80;99.90
43679;DHT22;29279;50.858;4.392;2022-10-30T17:26:54;19.80;99.90
43679;DHT22;29279;50.858;4.392;2022-10-30T17:32:03;19.60;99.90
43679;DHT22;29279;50.858;4.392;2022-10-30T17:34:29;19.60;99.90
43679;DHT22;29279;50.858;4.392;2022-10-30T17:36:55;19.50;99.90
43679;DHT22;29279;50.858;4.392;2022-10-30T17:39:24;19.60;99.90
43679;DHT22;29279;50.858;4.392;2022-10-30T17:41:51;19.60;99.90
43679;DHT22;29279;50.858;4.392;2022-10-30T17:44:22;19.50;99.90
43679;DHT22;29279;50.858;4.392;2022-10-30T17:46:48;19.40;99.90
43679;DHT22;29279;50.858;4.392;2022-10-30T17:49:30;19.40;99.90
43679;DHT22;29279;50.858;4.392;2022-10-30T17:51:57;19.40;99.90
43679;DHT22;29279;50.858;4.392;2022-10-30T17:54:24;19.40;99.90
43679;DHT22;29279;50.858;4.392;2022-10-30T17:56:50;19.40;99.90
43679;DHT22;29279;50.858;4.392;2022-10-30T17:59:16;19.40;99.90
43679;DHT22;29279;50.858;4.392;2022-10-30T18:01:41;19.40;99.90
43679;DHT22;29279;50.858;4.392;2022-10-30T18:04:15;19.40;99.90
43679;DHT22;29279;50.858;4.392;2022-10-30T18:06:41;19.30;99.90
43679;DHT22;29279;50.858;4.392;2022-10-30T18:09:08;19.40;99.90
43679;DHT22;29279;50.858;4.392;2022-10-30T18:11:35;19.30;99.90
43679;DHT22;29279;50.858;4.392;2022-10-30T18:14:01;19.10;99.90
43679;DHT22;29279;50.858;4.392;2022-10-30T18:16:27;19.10;99.90
43679;DHT22;29279;50.858;4.392;2022-10-30T18:18:53;19.10;99.90
43679;DHT22;29279;50.858;4.392;2022-10-30T18:21:21;19.10;99.90
43679;DHT22;29279;50.858;4.392;2022-10-30T18:23:48;19.00;99.90
43679;DHT22;29279;50.858;4.392;2022-10-30T18:26:22;19.00;99.90
43679;DHT22;29279;50.858;4.392;2022-10-30T18:28:48;18.90;99.90
43679;DHT22;29279;50.858;4.392;2022-10-30T18:31:16;19.10;99.90
43679;DHT22;29279;50.858;4.392;2022-10-30T18:33:43;18.90;99.90
43679;DHT22;29279;50.858;4.392;2022-10-30T18:36:21;18.90;99.90
43679;DHT22;29279;50.858;4.392;2022-10-30T18:38:47;19.00;99.90
43679;DHT22;29279;50.858;4.392;2022-10-30T18:41:17;18.90;99.90